Terminal Aerodrome Forecast
Issued by NWS

Home | Current Version | Previous Version | Graphics & Text | Print | Product List | Glossary On
Versions: 1 2 3 4 5 6 7 8 9 10 11 12
000
FTUS45 KGGW 100524
TAFGDV
TAF
KGDV 100524Z 1006/1106 28014G23KT P6SM FEW150 WS020/31040KT
     FM101200 27009KT P6SM FEW200
     FM102100 27013KT P6SM SCT150
     FM110100 28014G23KT P6SM FEW200 WS020/31040KT=

USA.gov is the U.S. government's official web portal to all federal, state and local government web resources and services.